sensor_id;sensor_type;location;lat;lon;timestamp;P1;durP1;ratioP1;P2;durP2;ratioP2
71570;SDS011;59407;42.682;23.322;2023-07-20T00:01:24;4.53;;;1.00;;
71570;SDS011;59407;42.682;23.322;2023-07-20T00:03:49;7.10;;;1.00;;
71570;SDS011;59407;42.682;23.322;2023-07-20T00:06:20;4.10;;;0.60;;
71570;SDS011;59407;42.682;23.322;2023-07-20T00:08:49;4.90;;;1.13;;
71570;SDS011;59407;42.682;23.322;2023-07-20T00:11:15;3.22;;;0.90;;
71570;SDS011;59407;42.682;23.322;2023-07-20T00:13:41;3.40;;;1.00;;
71570;SDS011;59407;42.682;23.322;2023-07-20T00:16:07;5.73;;;1.30;;
71570;SDS011;59407;42.682;23.322;2023-07-20T00:18:33;4.00;;;1.00;;
71570;SDS011;59407;42.682;23.322;2023-07-20T00:20:58;3.00;;;0.90;;
71570;SDS011;59407;42.682;23.322;2023-07-20T00:23:25;4.60;;;1.10;;
71570;SDS011;59407;42.682;23.322;2023-07-20T00:25:51;5.53;;;1.77;;
71570;SDS011;59407;42.682;23.322;2023-07-20T00:28:17;2.73;;;1.00;;
71570;SDS011;59407;42.682;23.322;2023-07-20T00:30:43;2.35;;;1.10;;
71570;SDS011;59407;42.682;23.322;2023-07-20T00:33:11;3.43;;;1.03;;
71570;SDS011;59407;42.682;23.322;2023-07-20T00:35:37;2.85;;;1.13;;
71570;SDS011;59407;42.682;23.322;2023-07-20T00:38:03;4.78;;;0.95;;
71570;SDS011;59407;42.682;23.322;2023-07-20T00:40:35;4.80;;;1.30;;
71570;SDS011;59407;42.682;23.322;2023-07-20T00:43:01;3.17;;;0.95;;
71570;SDS011;59407;42.682;23.322;2023-07-20T00:45:28;4.23;;;1.27;;
71570;SDS011;59407;42.682;23.322;2023-07-20T00:47:55;3.45;;;1.10;;
71570;SDS011;59407;42.682;23.322;2023-07-20T00:50:22;4.15;;;1.30;;
71570;SDS011;59407;42.682;23.322;2023-07-20T00:52:48;4.55;;;1.33;;
71570;SDS011;59407;42.682;23.322;2023-07-20T00:55:14;6.90;;;1.20;;
71570;SDS011;59407;42.682;23.322;2023-07-20T00:57:41;3.40;;;0.82;;
71570;SDS011;59407;42.682;23.322;2023-07-20T01:00:07;4.20;;;1.00;;
71570;SDS011;59407;42.682;23.322;2023-07-20T01:02:34;5.88;;;1.13;;
71570;SDS011;59407;42.682;23.322;2023-07-20T01:05:02;3.95;;;0.80;;
71570;SDS011;59407;42.682;23.322;2023-07-20T01:12:51;4.82;;;1.33;;
71570;SDS011;59407;42.682;23.322;2023-07-20T01:15:17;5.67;;;1.30;;
71570;SDS011;59407;42.682;23.322;2023-07-20T01:17:44;3.95;;;0.90;;
71570;SDS011;59407;42.682;23.322;2023-07-20T01:20:12;4.05;;;1.00;;
71570;SDS011;59407;42.682;23.322;2023-07-20T01:30:33;4.10;;;1.08;;
71570;SDS011;59407;42.682;23.322;2023-07-20T01:33:08;6.38;;;1.50;;
71570;SDS011;59407;42.682;23.322;2023-07-20T01:35:34;3.97;;;0.90;;
71570;SDS011;59407;42.682;23.322;2023-07-20T01:38:00;3.03;;;1.30;;
71570;SDS011;59407;42.682;23.322;2023-07-20T01:40:30;4.00;;;1.15;;
71570;SDS011;59407;42.682;23.322;2023-07-20T01:42:58;7.18;;;1.23;;
71570;SDS011;59407;42.682;23.322;2023-07-20T01:45:23;3.73;;;1.07;;
71570;SDS011;59407;42.682;23.322;2023-07-20T01:47:49;4.13;;;1.10;;
71570;SDS011;59407;42.682;23.322;2023-07-20T01:50:15;4.87;;;1.03;;
71570;SDS011;59407;42.682;23.322;2023-07-20T01:52:41;6.22;;;1.45;;
71570;SDS011;59407;42.682;23.322;2023-07-20T01:55:08;5.13;;;1.10;;
71570;SDS011;59407;42.682;23.322;2023-07-20T01:57:34;4.00;;;1.13;;
71570;SDS011;59407;42.682;23.322;2023-07-20T02:00:00;3.33;;;1.17;;
71570;SDS011;59407;42.682;23.322;2023-07-20T02:02:27;4.55;;;1.40;;
71570;SDS011;59407;42.682;23.322;2023-07-20T02:04:54;4.70;;;1.25;;
71570;SDS011;59407;42.682;23.322;2023-07-20T02:07:20;3.45;;;1.10;;
71570;SDS011;59407;42.682;23.322;2023-07-20T02:09:45;4.60;;;0.80;;
71570;SDS011;59407;42.682;23.322;2023-07-20T02:12:14;3.53;;;1.13;;
71570;SDS011;59407;42.682;23.322;2023-07-20T02:14:41;6.28;;;1.30;;
71570;SDS011;59407;42.682;23.322;2023-07-20T02:17:07;4.70;;;1.10;;
71570;SDS011;59407;42.682;23.322;2023-07-20T02:19:36;3.58;;;1.20;;
71570;SDS011;59407;42.682;23.322;2023-07-20T02:22:02;7.68;;;1.48;;
71570;SDS011;59407;42.682;23.322;2023-07-20T02:24:31;3.03;;;1.25;;
71570;SDS011;59407;42.682;23.322;2023-07-20T02:26:58;2.45;;;1.02;;
71570;SDS011;59407;42.682;23.322;2023-07-20T02:29:23;6.97;;;1.10;;
71570;SDS011;59407;42.682;23.322;2023-07-20T02:31:49;3.43;;;0.80;;
71570;SDS011;59407;42.682;23.322;2023-07-20T02:34:16;5.05;;;0.98;;
71570;SDS011;59407;42.682;23.322;2023-07-20T02:36:42;3.88;;;1.10;;
71570;SDS011;59407;42.682;23.322;2023-07-20T02:39:08;3.43;;;1.03;;
71570;SDS011;59407;42.682;23.322;2023-07-20T02:41:35;3.60;;;1.23;;
71570;SDS011;59407;42.682;23.322;2023-07-20T02:44:00;4.80;;;1.40;;
71570;SDS011;59407;42.682;23.322;2023-07-20T02:46:28;7.22;;;0.82;;
71570;SDS011;59407;42.682;23.322;2023-07-20T02:48:57;5.05;;;1.15;;
71570;SDS011;59407;42.682;23.322;2023-07-20T02:51:23;3.75;;;1.23;;
71570;SDS011;59407;42.682;23.322;2023-07-20T02:53:48;5.13;;;1.30;;
71570;SDS011;59407;42.682;23.322;2023-07-20T02:56:16;5.88;;;1.40;;
71570;SDS011;59407;42.682;23.322;2023-07-20T02:58:43;2.88;;;1.10;;
71570;SDS011;59407;42.682;23.322;2023-07-20T03:01:08;8.57;;;1.97;;
71570;SDS011;59407;42.682;23.322;2023-07-20T03:03:36;4.70;;;1.60;;
71570;SDS011;59407;42.682;23.322;2023-07-20T03:06:04;8.13;;;1.65;;
71570;SDS011;59407;42.682;23.322;2023-07-20T03:08:34;5.68;;;1.50;;
71570;SDS011;59407;42.682;23.322;2023-07-20T03:11:01;4.30;;;1.43;;
71570;SDS011;59407;42.682;23.322;2023-07-20T03:13:27;4.95;;;1.60;;
71570;SDS011;59407;42.682;23.322;2023-07-20T03:15:53;7.20;;;1.90;;
71570;SDS011;59407;42.682;23.322;2023-07-20T03:18:19;6.22;;;1.48;;
71570;SDS011;59407;42.682;23.322;2023-07-20T03:20:45;4.57;;;1.40;;
71570;SDS011;59407;42.682;23.322;2023-07-20T03:23:11;7.25;;;3.28;;
71570;SDS011;59407;42.682;23.322;2023-07-20T03:25:37;5.47;;;2.20;;
71570;SDS011;59407;42.682;23.322;2023-07-20T03:28:03;4.70;;;1.60;;
71570;SDS011;59407;42.682;23.322;2023-07-20T03:30:30;4.43;;;1.80;;
71570;SDS011;59407;42.682;23.322;2023-07-20T03:32:58;8.13;;;2.10;;
71570;SDS011;59407;42.682;23.322;2023-07-20T03:35:25;4.22;;;1.52;;
71570;SDS011;59407;42.682;23.322;2023-07-20T03:37:52;7.53;;;1.93;;
71570;SDS011;59407;42.682;23.322;2023-07-20T03:40:17;3.63;;;1.40;;
71570;SDS011;59407;42.682;23.322;2023-07-20T03:42:43;6.20;;;1.50;;
71570;SDS011;59407;42.682;23.322;2023-07-20T03:45:09;4.32;;;1.55;;
71570;SDS011;59407;42.682;23.322;2023-07-20T03:47:38;6.43;;;2.00;;
71570;SDS011;59407;42.682;23.322;2023-07-20T03:50:03;3.53;;;1.40;;
71570;SDS011;59407;42.682;23.322;2023-07-20T03:52:30;4.10;;;1.35;;
71570;SDS011;59407;42.682;23.322;2023-07-20T03:54:56;5.13;;;1.33;;
71570;SDS011;59407;42.682;23.322;2023-07-20T03:57:22;6.70;;;1.27;;
71570;SDS011;59407;42.682;23.322;2023-07-20T03:59:48;5.50;;;1.53;;
71570;SDS011;59407;42.682;23.322;2023-07-20T04:02:14;4.97;;;1.38;;
71570;SDS011;59407;42.682;23.322;2023-07-20T04:04:42;3.40;;;1.52;;
71570;SDS011;59407;42.682;23.322;2023-07-20T04:07:09;8.00;;;1.60;;
71570;SDS011;59407;42.682;23.322;2023-07-20T04:09:36;5.93;;;1.70;;
71570;SDS011;59407;42.682;23.322;2023-07-20T04:12:02;4.70;;;1.55;;
71570;SDS011;59407;42.682;23.322;2023-07-20T04:14:30;5.22;;;1.38;;
71570;SDS011;59407;42.682;23.322;2023-07-20T04:16:55;6.60;;;1.53;;
71570;SDS011;59407;42.682;23.322;2023-07-20T04:19:20;5.73;;;1.70;;
71570;SDS011;59407;42.682;23.322;2023-07-20T04:21:46;3.77;;;1.57;;
71570;SDS011;59407;42.682;23.322;2023-07-20T04:24:11;3.60;;;1.38;;
71570;SDS011;59407;42.682;23.322;2023-07-20T04:26:37;7.67;;;1.63;;
71570;SDS011;59407;42.682;23.322;2023-07-20T04:29:03;4.88;;;2.10;;
71570;SDS011;59407;42.682;23.322;2023-07-20T04:31:29;5.37;;;2.10;;
71570;SDS011;59407;42.682;23.322;2023-07-20T04:33:57;6.32;;;1.80;;
71570;SDS011;59407;42.682;23.322;2023-07-20T04:36:22;5.93;;;2.47;;
71570;SDS011;59407;42.682;23.322;2023-07-20T04:38:48;3.42;;;1.67;;
71570;SDS011;59407;42.682;23.322;2023-07-20T04:41:13;4.57;;;1.67;;
71570;SDS011;59407;42.682;23.322;2023-07-20T04:43:43;3.95;;;1.80;;
71570;SDS011;59407;42.682;23.322;2023-07-20T04:46:12;6.43;;;1.90;;
71570;SDS011;59407;42.682;23.322;2023-07-20T04:48:39;4.63;;;1.73;;
71570;SDS011;59407;42.682;23.322;2023-07-20T04:51:05;6.20;;;1.80;;
71570;SDS011;59407;42.682;23.322;2023-07-20T04:53:31;3.50;;;1.30;;
71570;SDS011;59407;42.682;23.322;2023-07-20T04:55:58;6.88;;;2.08;;
71570;SDS011;59407;42.682;23.322;2023-07-20T04:58:23;4.40;;;1.60;;
71570;SDS011;59407;42.682;23.322;2023-07-20T05:00:51;4.22;;;1.70;;
71570;SDS011;59407;42.682;23.322;2023-07-20T05:03:16;5.47;;;1.83;;
71570;SDS011;59407;42.682;23.322;2023-07-20T05:05:42;3.43;;;2.00;;
71570;SDS011;59407;42.682;23.322;2023-07-20T05:08:08;5.47;;;1.92;;
71570;SDS011;59407;42.682;23.322;2023-07-20T05:10:33;5.10;;;1.83;;
71570;SDS011;59407;42.682;23.322;2023-07-20T05:12:59;5.43;;;1.77;;
71570;SDS011;59407;42.682;23.322;2023-07-20T05:15:24;4.68;;;1.88;;
71570;SDS011;59407;42.682;23.322;2023-07-20T05:17:50;6.67;;;2.37;;
71570;SDS011;59407;42.682;23.322;2023-07-20T05:20:15;4.73;;;2.23;;
71570;SDS011;59407;42.682;23.322;2023-07-20T05:22:42;7.20;;;1.93;;
71570;SDS011;59407;42.682;23.322;2023-07-20T05:25:07;6.10;;;2.27;;
71570;SDS011;59407;42.682;23.322;2023-07-20T05:27:33;5.53;;;1.40;;
71570;SDS011;59407;42.682;23.322;2023-07-20T05:30:01;8.85;;;1.98;;
71570;SDS011;59407;42.682;23.322;2023-07-20T05:32:27;5.07;;;2.00;;
71570;SDS011;59407;42.682;23.322;2023-07-20T05:34:52;4.77;;;1.63;;
71570;SDS011;59407;42.682;23.322;2023-07-20T05:37:19;4.50;;;1.30;;
71570;SDS011;59407;42.682;23.322;2023-07-20T05:39:45;4.60;;;1.42;;
71570;SDS011;59407;42.682;23.322;2023-07-20T05:42:10;5.97;;;1.83;;
71570;SDS011;59407;42.682;23.322;2023-07-20T05:44:35;5.90;;;1.77;;
71570;SDS011;59407;42.682;23.322;2023-07-20T05:47:01;7.80;;;1.90;;
71570;SDS011;59407;42.682;23.322;2023-07-20T05:49:27;6.20;;;1.42;;
71570;SDS011;59407;42.682;23.322;2023-07-20T05:51:53;4.05;;;1.52;;
71570;SDS011;59407;42.682;23.322;2023-07-20T05:54:20;3.33;;;1.37;;
71570;SDS011;59407;42.682;23.322;2023-07-20T05:56:45;4.18;;;1.50;;
71570;SDS011;59407;42.682;23.322;2023-07-20T05:59:11;4.85;;;1.42;;
71570;SDS011;59407;42.682;23.322;2023-07-20T06:01:37;5.33;;;1.90;;
71570;SDS011;59407;42.682;23.322;2023-07-20T06:04:02;4.03;;;1.40;;
71570;SDS011;59407;42.682;23.322;2023-07-20T06:06:28;5.28;;;1.83;;
71570;SDS011;59407;42.682;23.322;2023-07-20T06:08:54;5.27;;;1.70;;
71570;SDS011;59407;42.682;23.322;2023-07-20T06:11:19;5.72;;;2.17;;
71570;SDS011;59407;42.682;23.322;2023-07-20T06:13:45;4.87;;;1.93;;
71570;SDS011;59407;42.682;23.322;2023-07-20T06:16:10;8.00;;;2.43;;
71570;SDS011;59407;42.682;23.322;2023-07-20T06:18:36;5.27;;;2.33;;
71570;SDS011;59407;42.682;23.322;2023-07-20T06:21:02;6.03;;;2.23;;
71570;SDS011;59407;42.682;23.322;2023-07-20T06:23:27;5.38;;;2.30;;
71570;SDS011;59407;42.682;23.322;2023-07-20T06:25:53;5.50;;;1.83;;
71570;SDS011;59407;42.682;23.322;2023-07-20T06:28:18;6.47;;;2.50;;
71570;SDS011;59407;42.682;23.322;2023-07-20T06:30:44;5.38;;;2.38;;
71570;SDS011;59407;42.682;23.322;2023-07-20T06:33:09;5.83;;;2.30;;
71570;SDS011;59407;42.682;23.322;2023-07-20T06:35:35;6.73;;;2.20;;
71570;SDS011;59407;42.682;23.322;2023-07-20T06:38:01;6.55;;;1.90;;
71570;SDS011;59407;42.682;23.322;2023-07-20T06:40:29;6.07;;;2.13;;
71570;SDS011;59407;42.682;23.322;2023-07-20T06:42:55;5.88;;;2.05;;
71570;SDS011;59407;42.682;23.322;2023-07-20T06:45:20;6.43;;;2.67;;
71570;SDS011;59407;42.682;23.322;2023-07-20T06:47:46;7.77;;;2.67;;
71570;SDS011;59407;42.682;23.322;2023-07-20T06:50:11;5.73;;;2.47;;
71570;SDS011;59407;42.682;23.322;2023-07-20T06:52:37;6.32;;;2.33;;
71570;SDS011;59407;42.682;23.322;2023-07-20T06:55:02;6.30;;;2.47;;
71570;SDS011;59407;42.682;23.322;2023-07-20T06:57:28;4.47;;;2.10;;
71570;SDS011;59407;42.682;23.322;2023-07-20T06:59:54;4.80;;;2.80;;
71570;SDS011;59407;42.682;23.322;2023-07-20T07:02:19;6.90;;;2.83;;
71570;SDS011;59407;42.682;23.322;2023-07-20T07:04:45;9.20;;;3.33;;
71570;SDS011;59407;42.682;23.322;2023-07-20T07:07:13;7.57;;;2.63;;
71570;SDS011;59407;42.682;23.322;2023-07-20T07:09:39;6.22;;;2.65;;
71570;SDS011;59407;42.682;23.322;2023-07-20T07:12:04;7.10;;;2.60;;
71570;SDS011;59407;42.682;23.322;2023-07-20T07:14:30;8.75;;;3.08;;
71570;SDS011;59407;42.682;23.322;2023-07-20T07:16:56;9.23;;;3.27;;
71570;SDS011;59407;42.682;23.322;2023-07-20T07:19:21;5.38;;;2.40;;
71570;SDS011;59407;42.682;23.322;2023-07-20T07:21:46;6.30;;;2.60;;
71570;SDS011;59407;42.682;23.322;2023-07-20T07:24:12;6.33;;;2.53;;
71570;SDS011;59407;42.682;23.322;2023-07-20T07:26:37;6.80;;;2.13;;
71570;SDS011;59407;42.682;23.322;2023-07-20T07:29:03;9.97;;;2.93;;
71570;SDS011;59407;42.682;23.322;2023-07-20T07:31:29;7.60;;;2.53;;
71570;SDS011;59407;42.682;23.322;2023-07-20T07:33:55;5.68;;;2.13;;
71570;SDS011;59407;42.682;23.322;2023-07-20T07:36:21;8.90;;;2.40;;
71570;SDS011;59407;42.682;23.322;2023-07-20T07:38:47;6.65;;;2.65;;
71570;SDS011;59407;42.682;23.322;2023-07-20T07:41:12;8.27;;;2.10;;
71570;SDS011;59407;42.682;23.322;2023-07-20T07:43:38;6.40;;;2.42;;
71570;SDS011;59407;42.682;23.322;2023-07-20T07:46:04;4.63;;;2.50;;
71570;SDS011;59407;42.682;23.322;2023-07-20T07:48:30;7.07;;;2.40;;
71570;SDS011;59407;42.682;23.322;2023-07-20T07:50:55;7.03;;;2.50;;
71570;SDS011;59407;42.682;23.322;2023-07-20T07:53:20;4.70;;;1.80;;
71570;SDS011;59407;42.682;23.322;2023-07-20T07:55:49;4.47;;;2.17;;
71570;SDS011;59407;42.682;23.322;2023-07-20T07:58:14;5.88;;;2.60;;
71570;SDS011;59407;42.682;23.322;2023-07-20T08:00:40;8.27;;;2.20;;
71570;SDS011;59407;42.682;23.322;2023-07-20T08:03:06;5.05;;;2.05;;
71570;SDS011;59407;42.682;23.322;2023-07-20T08:05:31;5.70;;;2.33;;
71570;SDS011;59407;42.682;23.322;2023-07-20T08:07:57;7.45;;;2.67;;
71570;SDS011;59407;42.682;23.322;2023-07-20T08:10:22;4.40;;;2.07;;
71570;SDS011;59407;42.682;23.322;2023-07-20T08:12:48;6.60;;;2.03;;
71570;SDS011;59407;42.682;23.322;2023-07-20T08:15:13;5.53;;;2.28;;
71570;SDS011;59407;42.682;23.322;2023-07-20T08:17:40;4.93;;;1.80;;
71570;SDS011;59407;42.682;23.322;2023-07-20T08:20:06;6.47;;;2.25;;
71570;SDS011;59407;42.682;23.322;2023-07-20T08:22:34;6.03;;;1.90;;
71570;SDS011;59407;42.682;23.322;2023-07-20T08:25:00;4.43;;;1.90;;
71570;SDS011;59407;42.682;23.322;2023-07-20T08:27:25;4.47;;;1.60;;
71570;SDS011;59407;42.682;23.322;2023-07-20T08:29:50;4.40;;;1.33;;
71570;SDS011;59407;42.682;23.322;2023-07-20T08:32:16;2.80;;;1.27;;
71570;SDS011;59407;42.682;23.322;2023-07-20T08:34:41;7.50;;;1.83;;
71570;SDS011;59407;42.682;23.322;2023-07-20T08:37:07;6.15;;;1.98;;
71570;SDS011;59407;42.682;23.322;2023-07-20T08:39:35;4.27;;;1.20;;
71570;SDS011;59407;42.682;23.322;2023-07-20T08:42:01;4.35;;;1.40;;
71570;SDS011;59407;42.682;23.322;2023-07-20T08:44:32;3.70;;;1.40;;
71570;SDS011;59407;42.682;23.322;2023-07-20T08:46:58;5.70;;;1.63;;
71570;SDS011;59407;42.682;23.322;2023-07-20T08:49:24;4.82;;;2.00;;
71570;SDS011;59407;42.682;23.322;2023-07-20T08:51:49;2.60;;;1.40;;
71570;SDS011;59407;42.682;23.322;2023-07-20T08:54:16;3.08;;;1.17;;
71570;SDS011;59407;42.682;23.322;2023-07-20T08:56:41;3.23;;;1.10;;
71570;SDS011;59407;42.682;23.322;2023-07-20T08:59:08;3.25;;;1.25;;
71570;SDS011;59407;42.682;23.322;2023-07-20T09:01:34;3.70;;;1.07;;
71570;SDS011;59407;42.682;23.322;2023-07-20T09:04:01;4.70;;;1.35;;
71570;SDS011;59407;42.682;23.322;2023-07-20T09:06:26;3.30;;;1.53;;
71570;SDS011;59407;42.682;23.322;2023-07-20T09:08:52;3.43;;;1.30;;
71570;SDS011;59407;42.682;23.322;2023-07-20T09:11:17;4.30;;;1.00;;
71570;SDS011;59407;42.682;23.322;2023-07-20T09:13:43;3.73;;;1.33;;
71570;SDS011;59407;42.682;23.322;2023-07-20T09:16:08;6.30;;;1.53;;
71570;SDS011;59407;42.682;23.322;2023-07-20T09:18:38;4.47;;;1.20;;
71570;SDS011;59407;42.682;23.322;2023-07-20T09:21:04;6.80;;;1.60;;
71570;SDS011;59407;42.682;23.322;2023-07-20T09:23:32;4.38;;;1.30;;
71570;SDS011;59407;42.682;23.322;2023-07-20T09:26:09;6.13;;;1.05;;
71570;SDS011;59407;42.682;23.322;2023-07-20T09:28:42;3.42;;;1.40;;
71570;SDS011;59407;42.682;23.322;2023-07-20T09:31:19;3.72;;;1.20;;
71570;SDS011;59407;42.682;23.322;2023-07-20T09:33:49;3.43;;;1.00;;
71570;SDS011;59407;42.682;23.322;2023-07-20T09:36:17;3.85;;;1.33;;
71570;SDS011;59407;42.682;23.322;2023-07-20T09:38:42;3.40;;;1.50;;
71570;SDS011;59407;42.682;23.322;2023-07-20T09:41:14;4.82;;;0.80;;
71570;SDS011;59407;42.682;23.322;2023-07-20T09:43:43;4.45;;;1.00;;
71570;SDS011;59407;42.682;23.322;2023-07-20T09:46:09;8.73;;;1.42;;
71570;SDS011;59407;42.682;23.322;2023-07-20T09:48:35;3.43;;;1.27;;
71570;SDS011;59407;42.682;23.322;2023-07-20T09:51:00;2.60;;;0.97;;
71570;SDS011;59407;42.682;23.322;2023-07-20T09:53:26;3.60;;;1.10;;
71570;SDS011;59407;42.682;23.322;2023-07-20T09:55:53;3.13;;;0.95;;
71570;SDS011;59407;42.682;23.322;2023-07-20T09:58:19;6.32;;;1.15;;
71570;SDS011;59407;42.682;23.322;2023-07-20T10:00:46;2.60;;;0.80;;
71570;SDS011;59407;42.682;23.322;2023-07-20T10:03:19;2.70;;;0.95;;
71570;SDS011;59407;42.682;23.322;2023-07-20T10:05:56;3.10;;;1.10;;
71570;SDS011;59407;42.682;23.322;2023-07-20T10:08:33;3.60;;;1.00;;
71570;SDS011;59407;42.682;23.322;2023-07-20T10:11:02;4.18;;;0.90;;
71570;SDS011;59407;42.682;23.322;2023-07-20T10:13:28;5.30;;;1.20;;
71570;SDS011;59407;42.682;23.322;2023-07-20T10:16:09;4.45;;;1.00;;
71570;SDS011;59407;42.682;23.322;2023-07-20T10:18:44;2.53;;;1.20;;
71570;SDS011;59407;42.682;23.322;2023-07-20T10:21:14;3.78;;;0.80;;
71570;SDS011;59407;42.682;23.322;2023-07-20T10:23:42;3.58;;;1.38;;
71570;SDS011;59407;42.682;23.322;2023-07-20T10:26:09;5.33;;;1.10;;
71570;SDS011;59407;42.682;23.322;2023-07-20T10:28:34;6.07;;;1.45;;
71570;SDS011;59407;42.682;23.322;2023-07-20T10:31:01;4.05;;;0.82;;
71570;SDS011;59407;42.682;23.322;2023-07-20T10:33:27;3.20;;;0.90;;
71570;SDS011;59407;42.682;23.322;2023-07-20T10:38:17;4.23;;;1.10;;
71570;SDS011;59407;42.682;23.322;2023-07-20T10:40:43;3.60;;;0.80;;
71570;SDS011;59407;42.682;23.322;2023-07-20T10:43:19;3.13;;;0.93;;
71570;SDS011;59407;42.682;23.322;2023-07-20T10:45:49;3.10;;;0.83;;
71570;SDS011;59407;42.682;23.322;2023-07-20T10:48:16;4.57;;;1.73;;
71570;SDS011;59407;42.682;23.322;2023-07-20T10:50:45;3.22;;;0.80;;
71570;SDS011;59407;42.682;23.322;2023-07-20T10:53:14;4.22;;;1.33;;
71570;SDS011;59407;42.682;23.322;2023-07-20T10:55:40;4.17;;;1.17;;
71570;SDS011;59407;42.682;23.322;2023-07-20T10:58:13;3.28;;;1.20;;
71570;SDS011;59407;42.682;23.322;2023-07-20T11:01:01;4.70;;;1.17;;
71570;SDS011;59407;42.682;23.322;2023-07-20T11:03:28;5.95;;;1.77;;
71570;SDS011;59407;42.682;23.322;2023-07-20T11:05:55;2.63;;;0.90;;
71570;SDS011;59407;42.682;23.322;2023-07-20T11:11:28;3.90;;;1.30;;
71570;SDS011;59407;42.682;23.322;2023-07-20T11:14:01;4.40;;;1.20;;
71570;SDS011;59407;42.682;23.322;2023-07-20T11:17:10;3.92;;;1.30;;
71570;SDS011;59407;42.682;23.322;2023-07-20T11:19:22;4.28;;;1.30;;
71570;SDS011;59407;42.682;23.322;2023-07-20T11:21:58;3.87;;;1.10;;
71570;SDS011;59407;42.682;23.322;2023-07-20T11:24:24;5.55;;;0.90;;
71570;SDS011;59407;42.682;23.322;2023-07-20T11:26:50;3.90;;;1.27;;
71570;SDS011;59407;42.682;23.322;2023-07-20T11:29:17;3.30;;;1.00;;
71570;SDS011;59407;42.682;23.322;2023-07-20T11:31:44;3.80;;;1.27;;
71570;SDS011;59407;42.682;23.322;2023-07-20T11:34:14;5.70;;;1.55;;
71570;SDS011;59407;42.682;23.322;2023-07-20T11:36:46;3.92;;;1.30;;
71570;SDS011;59407;42.682;23.322;2023-07-20T11:39:13;3.95;;;1.30;;
71570;SDS011;59407;42.682;23.322;2023-07-20T11:41:43;5.53;;;1.80;;
71570;SDS011;59407;42.682;23.322;2023-07-20T11:44:11;5.28;;;3.25;;
71570;SDS011;59407;42.682;23.322;2023-07-20T11:46:40;4.07;;;2.13;;
71570;SDS011;59407;42.682;23.322;2023-07-20T11:49:07;4.95;;;1.48;;
71570;SDS011;59407;42.682;23.322;2023-07-20T11:51:34;4.97;;;1.50;;
71570;SDS011;59407;42.682;23.322;2023-07-20T11:54:00;5.03;;;2.30;;
71570;SDS011;59407;42.682;23.322;2023-07-20T11:56:26;6.88;;;1.58;;
71570;SDS011;59407;42.682;23.322;2023-07-20T11:58:55;4.93;;;1.58;;
71570;SDS011;59407;42.682;23.322;2023-07-20T12:01:24;4.00;;;1.77;;
71570;SDS011;59407;42.682;23.322;2023-07-20T12:03:49;5.60;;;1.80;;
71570;SDS011;59407;42.682;23.322;2023-07-20T12:06:15;4.10;;;1.80;;
71570;SDS011;59407;42.682;23.322;2023-07-20T12:08:44;5.60;;;1.70;;
71570;SDS011;59407;42.682;23.322;2023-07-20T12:11:10;3.45;;;1.73;;
71570;SDS011;59407;42.682;23.322;2023-07-20T12:13:44;3.87;;;1.50;;
71570;SDS011;59407;42.682;23.322;2023-07-20T12:16:11;3.83;;;1.70;;
71570;SDS011;59407;42.682;23.322;2023-07-20T12:18:38;5.20;;;1.50;;
71570;SDS011;59407;42.682;23.322;2023-07-20T12:21:05;5.17;;;1.77;;
71570;SDS011;59407;42.682;23.322;2023-07-20T12:23:41;3.95;;;1.30;;
71570;SDS011;59407;42.682;23.322;2023-07-20T12:26:07;5.13;;;1.50;;
71570;SDS011;59407;42.682;23.322;2023-07-20T12:28:39;4.50;;;1.30;;
71570;SDS011;59407;42.682;23.322;2023-07-20T12:31:08;3.63;;;1.37;;
71570;SDS011;59407;42.682;23.322;2023-07-20T12:33:35;6.15;;;1.50;;
71570;SDS011;59407;42.682;23.322;2023-07-20T12:36:01;5.38;;;1.63;;
71570;SDS011;59407;42.682;23.322;2023-07-20T12:38:27;4.57;;;1.40;;
71570;SDS011;59407;42.682;23.322;2023-07-20T12:40:53;3.05;;;1.13;;
71570;SDS011;59407;42.682;23.322;2023-07-20T12:43:20;3.80;;;1.30;;
71570;SDS011;59407;42.682;23.322;2023-07-20T12:45:46;4.13;;;1.48;;
71570;SDS011;59407;42.682;23.322;2023-07-20T12:48:12;3.80;;;1.30;;
71570;SDS011;59407;42.682;23.322;2023-07-20T12:50:37;3.00;;;1.30;;
71570;SDS011;59407;42.682;23.322;2023-07-20T12:53:02;5.00;;;1.27;;
71570;SDS011;59407;42.682;23.322;2023-07-20T12:55:28;2.27;;;0.87;;
71570;SDS011;59407;42.682;23.322;2023-07-20T12:57:54;3.60;;;1.05;;
71570;SDS011;59407;42.682;23.322;2023-07-20T13:00:20;5.40;;;1.20;;
71570;SDS011;59407;42.682;23.322;2023-07-20T13:02:48;5.05;;;1.15;;
71570;SDS011;59407;42.682;23.322;2023-07-20T13:05:13;4.80;;;1.30;;
71570;SDS011;59407;42.682;23.322;2023-07-20T13:07:39;4.47;;;1.07;;
71570;SDS011;59407;42.682;23.322;2023-07-20T13:10:05;3.50;;;1.30;;
71570;SDS011;59407;42.682;23.322;2023-07-20T13:12:31;3.50;;;1.02;;
71570;SDS011;59407;42.682;23.322;2023-07-20T13:14:58;3.75;;;1.35;;
71570;SDS011;59407;42.682;23.322;2023-07-20T13:17:27;5.05;;;1.00;;
71570;SDS011;59407;42.682;23.322;2023-07-20T13:19:53;3.47;;;1.00;;
71570;SDS011;59407;42.682;23.322;2023-07-20T13:22:19;2.67;;;0.82;;
71570;SDS011;59407;42.682;23.322;2023-07-20T13:24:44;5.60;;;1.70;;
71570;SDS011;59407;42.682;23.322;2023-07-20T13:27:13;2.92;;;1.00;;
71570;SDS011;59407;42.682;23.322;2023-07-20T13:29:39;5.82;;;1.50;;
71570;SDS011;59407;42.682;23.322;2023-07-20T13:32:05;4.00;;;1.20;;
71570;SDS011;59407;42.682;23.322;2023-07-20T13:34:31;5.78;;;1.30;;
71570;SDS011;59407;42.682;23.322;2023-07-20T13:36:56;3.50;;;0.97;;
71570;SDS011;59407;42.682;23.322;2023-07-20T13:39:22;2.73;;;1.00;;
71570;SDS011;59407;42.682;23.322;2023-07-20T13:41:49;3.97;;;1.23;;
71570;SDS011;59407;42.682;23.322;2023-07-20T13:44:15;3.95;;;1.13;;
71570;SDS011;59407;42.682;23.322;2023-07-20T13:46:40;3.07;;;0.87;;
71570;SDS011;59407;42.682;23.322;2023-07-20T13:49:05;3.77;;;1.00;;
71570;SDS011;59407;42.682;23.322;2023-07-20T13:51:31;4.03;;;0.90;;
71570;SDS011;59407;42.682;23.322;2023-07-20T13:53:56;4.00;;;0.98;;
71570;SDS011;59407;42.682;23.322;2023-07-20T13:56:23;3.67;;;1.00;;
71570;SDS011;59407;42.682;23.322;2023-07-20T13:58:49;6.55;;;1.17;;
71570;SDS011;59407;42.682;23.322;2023-07-20T14:01:15;4.47;;;1.00;;
71570;SDS011;59407;42.682;23.322;2023-07-20T14:03:42;3.40;;;0.98;;
71570;SDS011;59407;42.682;23.322;2023-07-20T14:06:08;3.27;;;1.10;;
71570;SDS011;59407;42.682;23.322;2023-07-20T14:08:33;4.07;;;0.90;;
71570;SDS011;59407;42.682;23.322;2023-07-20T14:10:58;4.23;;;0.83;;
71570;SDS011;59407;42.682;23.322;2023-07-20T14:13:24;5.15;;;1.40;;
71570;SDS011;59407;42.682;23.322;2023-07-20T14:15:49;5.33;;;0.90;;
71570;SDS011;59407;42.682;23.322;2023-07-20T14:18:15;3.75;;;0.80;;
71570;SDS011;59407;42.682;23.322;2023-07-20T14:20:41;2.83;;;1.10;;
71570;SDS011;59407;42.682;23.322;2023-07-20T14:23:06;4.07;;;1.30;;
71570;SDS011;59407;42.682;23.322;2023-07-20T14:25:32;3.63;;;1.37;;
71570;SDS011;59407;42.682;23.322;2023-07-20T14:27:58;3.33;;;0.90;;
71570;SDS011;59407;42.682;23.322;2023-07-20T14:30:24;6.38;;;1.02;;
71570;SDS011;59407;42.682;23.322;2023-07-20T14:32:50;4.63;;;1.23;;
71570;SDS011;59407;42.682;23.322;2023-07-20T14:35:15;5.10;;;1.20;;
71570;SDS011;59407;42.682;23.322;2023-07-20T14:37:41;4.63;;;1.20;;
71570;SDS011;59407;42.682;23.322;2023-07-20T14:40:06;3.43;;;0.90;;
71570;SDS011;59407;42.682;23.322;2023-07-20T14:42:32;4.53;;;1.30;;
71570;SDS011;59407;42.682;23.322;2023-07-20T14:44:58;3.97;;;0.80;;
71570;SDS011;59407;42.682;23.322;2023-07-20T14:47:23;3.58;;;1.02;;
71570;SDS011;59407;42.682;23.322;2023-07-20T14:49:49;4.97;;;0.80;;